sensor_id;sensor_type;location;lat;lon;timestamp;temperature;humidity
18930;DHT22;43305;52.186;5.598;2022-08-03T00:02:10;19.90;99.90
18930;DHT22;43305;52.186;5.598;2022-08-03T00:04:38;19.90;99.90
18930;DHT22;43305;52.186;5.598;2022-08-03T00:07:04;19.90;99.90
18930;DHT22;43305;52.186;5.598;2022-08-03T00:09:32;19.90;99.90
18930;DHT22;43305;52.186;5.598;2022-08-03T00:11:58;19.90;99.90
18930;DHT22;43305;52.186;5.598;2022-08-03T00:14:26;19.90;99.90
18930;DHT22;43305;52.186;5.598;2022-08-03T00:16:53;19.80;99.90
18930;DHT22;43305;52.186;5.598;2022-08-03T00:19:28;19.80;99.90
18930;DHT22;43305;52.186;5.598;2022-08-03T00:21:58;19.80;99.90
18930;DHT22;43305;52.186;5.598;2022-08-03T00:24:25;19.80;99.90
18930;DHT22;43305;52.186;5.598;2022-08-03T00:26:52;19.70;99.90
18930;DHT22;43305;52.186;5.598;2022-08-03T00:29:19;19.70;99.90
18930;DHT22;43305;52.186;5.598;2022-08-03T00:31:48;19.70;99.90
18930;DHT22;43305;52.186;5.598;2022-08-03T00:34:15;19.70;99.90
18930;DHT22;43305;52.186;5.598;2022-08-03T00:36:42;19.60;99.90
18930;DHT22;43305;52.186;5.598;2022-08-03T00:39:10;19.60;99.90
18930;DHT22;43305;52.186;5.598;2022-08-03T00:41:37;19.60;99.90
18930;DHT22;43305;52.186;5.598;2022-08-03T00:44:04;19.60;99.90
18930;DHT22;43305;52.186;5.598;2022-08-03T00:46:31;19.50;99.90
18930;DHT22;43305;52.186;5.598;2022-08-03T00:48:58;19.60;99.90
18930;DHT22;43305;52.186;5.598;2022-08-03T00:51:25;19.60;99.90
18930;DHT22;43305;52.186;5.598;2022-08-03T00:53:52;19.60;99.90
18930;DHT22;43305;52.186;5.598;2022-08-03T00:56:24;19.50;99.90
18930;DHT22;43305;52.186;5.598;2022-08-03T00:58:53;19.50;99.90
18930;DHT22;43305;52.186;5.598;2022-08-03T01:01:22;19.60;99.90
18930;DHT22;43305;52.186;5.598;2022-08-03T01:03:49;19.50;99.90
18930;DHT22;43305;52.186;5.598;2022-08-03T01:06:18;19.50;99.90
18930;DHT22;43305;52.186;5.598;2022-08-03T01:08:52;19.40;99.90
18930;DHT22;43305;52.186;5.598;2022-08-03T01:11:27;19.40;99.90
18930;DHT22;43305;52.186;5.598;2022-08-03T01:14:03;19.40;99.90
18930;DHT22;43305;52.186;5.598;2022-08-03T01:16:36;19.30;99.90
18930;DHT22;43305;52.186;5.598;2022-08-03T01:19:18;19.20;99.90
18930;DHT22;43305;52.186;5.598;2022-08-03T01:22:02;19.20;99.90
18930;DHT22;43305;52.186;5.598;2022-08-03T01:24:41;19.20;99.90
18930;DHT22;43305;52.186;5.598;2022-08-03T01:27:16;19.20;99.90
18930;DHT22;43305;52.186;5.598;2022-08-03T01:29:55;19.20;99.90
18930;DHT22;43305;52.186;5.598;2022-08-03T01:32:27;19.20;99.90
18930;DHT22;43305;52.186;5.598;2022-08-03T01:35:01;19.20;99.90
18930;DHT22;43305;52.186;5.598;2022-08-03T01:37:34;19.20;99.90
18930;DHT22;43305;52.186;5.598;2022-08-03T01:40:04;19.20;99.90
18930;DHT22;43305;52.186;5.598;2022-08-03T01:42:32;19.10;99.90
18930;DHT22;43305;52.186;5.598;2022-08-03T01:45:02;19.10;99.90
18930;DHT22;43305;52.186;5.598;2022-08-03T01:47:30;19.10;99.90
18930;DHT22;43305;52.186;5.598;2022-08-03T01:49:59;19.10;99.90
18930;DHT22;43305;52.186;5.598;2022-08-03T01:52:28;19.10;99.90
18930;DHT22;43305;52.186;5.598;2022-08-03T01:54:56;19.10;99.90
18930;DHT22;43305;52.186;5.598;2022-08-03T01:57:24;19.10;99.90
18930;DHT22;43305;52.186;5.598;2022-08-03T01:59:54;19.10;99.90
18930;DHT22;43305;52.186;5.598;2022-08-03T02:02:24;19.00;99.90
18930;DHT22;43305;52.186;5.598;2022-08-03T02:04:53;19.10;99.90
18930;DHT22;43305;52.186;5.598;2022-08-03T02:07:22;19.10;99.90
18930;DHT22;43305;52.186;5.598;2022-08-03T02:09:51;19.10;99.90
18930;DHT22;43305;52.186;5.598;2022-08-03T02:12:18;19.00;99.90
18930;DHT22;43305;52.186;5.598;2022-08-03T02:14:47;19.00;99.90
18930;DHT22;43305;52.186;5.598;2022-08-03T02:17:15;19.00;99.90
18930;DHT22;43305;52.186;5.598;2022-08-03T02:19:43;19.00;99.90
18930;DHT22;43305;52.186;5.598;2022-08-03T02:22:12;19.00;99.90
18930;DHT22;43305;52.186;5.598;2022-08-03T02:24:41;19.00;99.90
18930;DHT22;43305;52.186;5.598;2022-08-03T02:27:14;19.00;99.90
18930;DHT22;43305;52.186;5.598;2022-08-03T02:29:47;18.90;99.90
18930;DHT22;43305;52.186;5.598;2022-08-03T02:32:19;19.00;99.90
18930;DHT22;43305;52.186;5.598;2022-08-03T02:34:51;18.90;99.90
18930;DHT22;43305;52.186;5.598;2022-08-03T02:37:20;18.90;99.90
18930;DHT22;43305;52.186;5.598;2022-08-03T02:39:49;18.90;99.90
18930;DHT22;43305;52.186;5.598;2022-08-03T02:42:20;18.90;99.90
18930;DHT22;43305;52.186;5.598;2022-08-03T02:44:50;18.90;99.90
18930;DHT22;43305;52.186;5.598;2022-08-03T02:47:18;18.80;99.90
18930;DHT22;43305;52.186;5.598;2022-08-03T02:49:48;18.90;99.90
18930;DHT22;43305;52.186;5.598;2022-08-03T02:52:17;18.90;99.90
18930;DHT22;43305;52.186;5.598;2022-08-03T02:54:45;18.90;99.90
18930;DHT22;43305;52.186;5.598;2022-08-03T02:57:14;18.90;99.90
18930;DHT22;43305;52.186;5.598;2022-08-03T02:59:44;18.90;99.90
18930;DHT22;43305;52.186;5.598;2022-08-03T03:02:11;18.90;99.90
18930;DHT22;43305;52.186;5.598;2022-08-03T03:04:40;18.80;99.90
18930;DHT22;43305;52.186;5.598;2022-08-03T03:07:10;18.80;99.90
18930;DHT22;43305;52.186;5.598;2022-08-03T03:09:38;18.80;99.90
18930;DHT22;43305;52.186;5.598;2022-08-03T03:12:07;18.80;99.90
18930;DHT22;43305;52.186;5.598;2022-08-03T03:14:36;18.80;99.90
18930;DHT22;43305;52.186;5.598;2022-08-03T03:17:03;18.80;99.90
18930;DHT22;43305;52.186;5.598;2022-08-03T03:19:32;18.80;99.90
18930;DHT22;43305;52.186;5.598;2022-08-03T03:22:00;18.70;99.90
18930;DHT22;43305;52.186;5.598;2022-08-03T03:24:30;18.70;99.90
18930;DHT22;43305;52.186;5.598;2022-08-03T03:26:58;18.70;99.90
18930;DHT22;43305;52.186;5.598;2022-08-03T03:29:25;18.60;99.90
18930;DHT22;43305;52.186;5.598;2022-08-03T03:31:52;18.70;99.90
18930;DHT22;43305;52.186;5.598;2022-08-03T03:34:22;18.60;99.90
18930;DHT22;43305;52.186;5.598;2022-08-03T03:36:49;18.60;99.90
18930;DHT22;43305;52.186;5.598;2022-08-03T03:39:16;18.60;99.90
18930;DHT22;43305;52.186;5.598;2022-08-03T03:41:44;18.50;99.90
18930;DHT22;43305;52.186;5.598;2022-08-03T03:44:12;18.50;99.90
18930;DHT22;43305;52.186;5.598;2022-08-03T03:46:39;18.50;99.90
18930;DHT22;43305;52.186;5.598;2022-08-03T03:49:06;18.50;99.90
18930;DHT22;43305;52.186;5.598;2022-08-03T03:51:33;18.50;99.90
18930;DHT22;43305;52.186;5.598;2022-08-03T03:54:01;18.50;99.90
18930;DHT22;43305;52.186;5.598;2022-08-03T03:56:29;18.50;99.90
18930;DHT22;43305;52.186;5.598;2022-08-03T03:58:57;18.50;99.90
18930;DHT22;43305;52.186;5.598;2022-08-03T04:01:24;18.50;99.90
18930;DHT22;43305;52.186;5.598;2022-08-03T04:03:51;18.50;99.90
18930;DHT22;43305;52.186;5.598;2022-08-03T04:06:19;18.50;99.90
18930;DHT22;43305;52.186;5.598;2022-08-03T04:09:00;18.50;99.90
18930;DHT22;43305;52.186;5.598;2022-08-03T04:11:46;18.50;99.90
18930;DHT22;43305;52.186;5.598;2022-08-03T04:14:19;18.50;99.90
18930;DHT22;43305;52.186;5.598;2022-08-03T04:16:50;18.50;99.90
18930;DHT22;43305;52.186;5.598;2022-08-03T04:19:23;18.50;99.90
18930;DHT22;43305;52.186;5.598;2022-08-03T04:21:53;18.50;99.90
18930;DHT22;43305;52.186;5.598;2022-08-03T04:24:22;18.50;99.90
18930;DHT22;43305;52.186;5.598;2022-08-03T04:26:52;18.50;99.90
18930;DHT22;43305;52.186;5.598;2022-08-03T04:29:21;18.50;99.90
18930;DHT22;43305;52.186;5.598;2022-08-03T04:31:50;18.50;99.90
18930;DHT22;43305;52.186;5.598;2022-08-03T04:34:18;18.50;99.90
18930;DHT22;43305;52.186;5.598;2022-08-03T04:36:48;18.60;99.90
18930;DHT22;43305;52.186;5.598;2022-08-03T04:39:23;18.60;99.90
18930;DHT22;43305;52.186;5.598;2022-08-03T04:41:52;18.70;99.90
18930;DHT22;43305;52.186;5.598;2022-08-03T04:44:22;18.60;99.90
18930;DHT22;43305;52.186;5.598;2022-08-03T04:46:49;18.70;99.90
18930;DHT22;43305;52.186;5.598;2022-08-03T04:49:17;18.80;99.90
18930;DHT22;43305;52.186;5.598;2022-08-03T04:51:46;18.80;99.90
18930;DHT22;43305;52.186;5.598;2022-08-03T04:54:13;18.80;99.90
18930;DHT22;43305;52.186;5.598;2022-08-03T04:56:41;18.90;99.90
18930;DHT22;43305;52.186;5.598;2022-08-03T04:59:07;18.90;99.90
18930;DHT22;43305;52.186;5.598;2022-08-03T05:01:36;18.90;99.90
18930;DHT22;43305;52.186;5.598;2022-08-03T05:04:04;18.90;99.90
18930;DHT22;43305;52.186;5.598;2022-08-03T05:06:31;18.90;99.90
18930;DHT22;43305;52.186;5.598;2022-08-03T05:08:58;19.00;99.90
18930;DHT22;43305;52.186;5.598;2022-08-03T05:11:25;19.00;99.90
18930;DHT22;43305;52.186;5.598;2022-08-03T05:13:53;19.00;99.90
18930;DHT22;43305;52.186;5.598;2022-08-03T05:16:20;19.00;99.90
18930;DHT22;43305;52.186;5.598;2022-08-03T05:18:48;19.10;99.90
18930;DHT22;43305;52.186;5.598;2022-08-03T05:21:15;19.20;99.90
18930;DHT22;43305;52.186;5.598;2022-08-03T05:23:42;19.20;99.90
18930;DHT22;43305;52.186;5.598;2022-08-03T05:26:09;19.20;99.90
18930;DHT22;43305;52.186;5.598;2022-08-03T05:28:37;19.30;99.90
18930;DHT22;43305;52.186;5.598;2022-08-03T05:31:03;19.40;99.90
18930;DHT22;43305;52.186;5.598;2022-08-03T05:33:30;19.30;99.90
18930;DHT22;43305;52.186;5.598;2022-08-03T05:35:59;19.30;99.90
18930;DHT22;43305;52.186;5.598;2022-08-03T05:38:26;19.30;99.90
18930;DHT22;43305;52.186;5.598;2022-08-03T05:40:54;19.20;99.90
18930;DHT22;43305;52.186;5.598;2022-08-03T05:43:21;19.30;99.90
18930;DHT22;43305;52.186;5.598;2022-08-03T05:45:47;19.40;99.90
18930;DHT22;43305;52.186;5.598;2022-08-03T05:48:14;19.40;99.90
18930;DHT22;43305;52.186;5.598;2022-08-03T05:50:41;19.30;99.90
18930;DHT22;43305;52.186;5.598;2022-08-03T05:53:10;19.50;99.90
18930;DHT22;43305;52.186;5.598;2022-08-03T05:55:36;19.60;99.90
18930;DHT22;43305;52.186;5.598;2022-08-03T05:58:04;19.70;99.90
18930;DHT22;43305;52.186;5.598;2022-08-03T06:00:30;19.70;99.90
18930;DHT22;43305;52.186;5.598;2022-08-03T06:02:57;19.80;99.90
18930;DHT22;43305;52.186;5.598;2022-08-03T06:05:24;19.90;99.90
18930;DHT22;43305;52.186;5.598;2022-08-03T06:07:52;19.90;99.90
18930;DHT22;43305;52.186;5.598;2022-08-03T06:10:21;20.00;99.90
18930;DHT22;43305;52.186;5.598;2022-08-03T06:12:48;20.10;99.90
18930;DHT22;43305;52.186;5.598;2022-08-03T06:15:15;20.20;99.90
18930;DHT22;43305;52.186;5.598;2022-08-03T06:17:45;20.30;99.90
18930;DHT22;43305;52.186;5.598;2022-08-03T06:20:12;20.40;99.90
18930;DHT22;43305;52.186;5.598;2022-08-03T06:22:39;20.50;99.90
18930;DHT22;43305;52.186;5.598;2022-08-03T06:25:06;20.60;99.90
18930;DHT22;43305;52.186;5.598;2022-08-03T06:27:34;20.60;99.90
18930;DHT22;43305;52.186;5.598;2022-08-03T06:30:06;20.80;99.90
18930;DHT22;43305;52.186;5.598;2022-08-03T06:32:35;20.70;99.90
18930;DHT22;43305;52.186;5.598;2022-08-03T06:35:02;20.60;99.90
18930;DHT22;43305;52.186;5.598;2022-08-03T06:37:29;20.70;99.90
18930;DHT22;43305;52.186;5.598;2022-08-03T06:39:56;20.70;99.90
18930;DHT22;43305;52.186;5.598;2022-08-03T06:42:22;20.80;99.90
18930;DHT22;43305;52.186;5.598;2022-08-03T06:44:51;20.90;99.90
18930;DHT22;43305;52.186;5.598;2022-08-03T06:47:18;21.00;99.90
18930;DHT22;43305;52.186;5.598;2022-08-03T06:49:44;21.10;99.90
18930;DHT22;43305;52.186;5.598;2022-08-03T06:52:11;21.20;99.90
18930;DHT22;43305;52.186;5.598;2022-08-03T06:54:38;21.20;99.90
18930;DHT22;43305;52.186;5.598;2022-08-03T06:57:05;21.20;99.90
18930;DHT22;43305;52.186;5.598;2022-08-03T06:59:34;21.20;99.90
18930;DHT22;43305;52.186;5.598;2022-08-03T07:02:05;21.20;99.90
18930;DHT22;43305;52.186;5.598;2022-08-03T07:04:34;21.40;99.90
18930;DHT22;43305;52.186;5.598;2022-08-03T07:07:01;21.40;99.90
18930;DHT22;43305;52.186;5.598;2022-08-03T07:09:28;21.30;99.90
18930;DHT22;43305;52.186;5.598;2022-08-03T07:11:54;21.30;99.90
18930;DHT22;43305;52.186;5.598;2022-08-03T07:14:23;21.30;99.90
18930;DHT22;43305;52.186;5.598;2022-08-03T07:16:50;21.30;99.90
18930;DHT22;43305;52.186;5.598;2022-08-03T07:19:20;21.30;99.90
18930;DHT22;43305;52.186;5.598;2022-08-03T07:21:47;21.40;99.90
18930;DHT22;43305;52.186;5.598;2022-08-03T07:24:14;21.50;99.90
18930;DHT22;43305;52.186;5.598;2022-08-03T07:26:40;21.70;99.90
18930;DHT22;43305;52.186;5.598;2022-08-03T07:29:07;21.80;99.90
18930;DHT22;43305;52.186;5.598;2022-08-03T07:31:34;22.00;99.90
18930;DHT22;43305;52.186;5.598;2022-08-03T07:34:01;22.10;99.90
18930;DHT22;43305;52.186;5.598;2022-08-03T07:36:29;22.10;99.90
18930;DHT22;43305;52.186;5.598;2022-08-03T07:38:57;22.10;99.90
18930;DHT22;43305;52.186;5.598;2022-08-03T07:41:25;22.10;99.90
18930;DHT22;43305;52.186;5.598;2022-08-03T07:43:52;22.10;99.90
18930;DHT22;43305;52.186;5.598;2022-08-03T07:46:19;22.20;99.90
18930;DHT22;43305;52.186;5.598;2022-08-03T07:48:46;22.30;99.90
18930;DHT22;43305;52.186;5.598;2022-08-03T07:51:15;22.50;99.90
18930;DHT22;43305;52.186;5.598;2022-08-03T07:53:43;22.60;99.90
18930;DHT22;43305;52.186;5.598;2022-08-03T07:56:10;22.70;99.90
18930;DHT22;43305;52.186;5.598;2022-08-03T07:58:37;22.80;99.90
18930;DHT22;43305;52.186;5.598;2022-08-03T08:01:04;22.70;99.90
18930;DHT22;43305;52.186;5.598;2022-08-03T08:03:31;22.90;99.90
18930;DHT22;43305;52.186;5.598;2022-08-03T08:05:58;23.10;99.90
18930;DHT22;43305;52.186;5.598;2022-08-03T08:08:25;23.30;99.90
18930;DHT22;43305;52.186;5.598;2022-08-03T08:10:53;23.30;99.90
18930;DHT22;43305;52.186;5.598;2022-08-03T08:13:20;23.40;99.90
18930;DHT22;43305;52.186;5.598;2022-08-03T08:15:50;23.50;99.90
18930;DHT22;43305;52.186;5.598;2022-08-03T08:18:17;23.60;99.90
18930;DHT22;43305;52.186;5.598;2022-08-03T08:20:44;23.80;99.90
18930;DHT22;43305;52.186;5.598;2022-08-03T08:23:11;23.90;99.90
18930;DHT22;43305;52.186;5.598;2022-08-03T08:25:38;24.00;99.90
18930;DHT22;43305;52.186;5.598;2022-08-03T08:28:06;23.90;99.90
18930;DHT22;43305;52.186;5.598;2022-08-03T08:30:33;23.90;99.90
18930;DHT22;43305;52.186;5.598;2022-08-03T08:33:03;23.90;99.90
18930;DHT22;43305;52.186;5.598;2022-08-03T08:35:30;24.00;99.90
18930;DHT22;43305;52.186;5.598;2022-08-03T08:37:58;24.00;99.90
18930;DHT22;43305;52.186;5.598;2022-08-03T08:40:26;24.10;99.90
18930;DHT22;43305;52.186;5.598;2022-08-03T08:42:55;24.10;99.90
18930;DHT22;43305;52.186;5.598;2022-08-03T08:45:24;24.20;99.90
18930;DHT22;43305;52.186;5.598;2022-08-03T08:48:06;24.40;99.90
18930;DHT22;43305;52.186;5.598;2022-08-03T08:50:36;24.40;99.90
18930;DHT22;43305;52.186;5.598;2022-08-03T08:53:06;24.50;99.90
18930;DHT22;43305;52.186;5.598;2022-08-03T08:55:34;24.50;99.90
18930;DHT22;43305;52.186;5.598;2022-08-03T08:58:03;24.30;99.90
18930;DHT22;43305;52.186;5.598;2022-08-03T09:00:32;24.40;99.90
18930;DHT22;43305;52.186;5.598;2022-08-03T09:02:59;24.40;99.90
18930;DHT22;43305;52.186;5.598;2022-08-03T09:05:29;24.50;99.90
18930;DHT22;43305;52.186;5.598;2022-08-03T09:07:57;24.60;99.90
18930;DHT22;43305;52.186;5.598;2022-08-03T09:10:24;24.80;99.90
18930;DHT22;43305;52.186;5.598;2022-08-03T09:12:52;25.00;99.90
18930;DHT22;43305;52.186;5.598;2022-08-03T09:15:21;24.90;99.90
18930;DHT22;43305;52.186;5.598;2022-08-03T09:17:52;24.80;99.90
18930;DHT22;43305;52.186;5.598;2022-08-03T09:20:21;24.80;99.90
18930;DHT22;43305;52.186;5.598;2022-08-03T09:22:51;25.00;99.90
18930;DHT22;43305;52.186;5.598;2022-08-03T09:25:18;25.10;99.90
18930;DHT22;43305;52.186;5.598;2022-08-03T09:27:46;25.20;99.90
18930;DHT22;43305;52.186;5.598;2022-08-03T09:30:13;25.20;99.90
18930;DHT22;43305;52.186;5.598;2022-08-03T09:32:40;25.30;99.90
18930;DHT22;43305;52.186;5.598;2022-08-03T09:35:10;25.40;99.90
18930;DHT22;43305;52.186;5.598;2022-08-03T09:37:37;25.20;99.90
18930;DHT22;43305;52.186;5.598;2022-08-03T09:40:05;25.20;99.90
18930;DHT22;43305;52.186;5.598;2022-08-03T09:42:32;25.10;99.90
18930;DHT22;43305;52.186;5.598;2022-08-03T09:45:03;25.10;99.90
18930;DHT22;43305;52.186;5.598;2022-08-03T09:47:31;25.20;99.90
18930;DHT22;43305;52.186;5.598;2022-08-03T09:50:02;25.30;99.90
18930;DHT22;43305;52.186;5.598;2022-08-03T09:52:32;25.40;99.90
18930;DHT22;43305;52.186;5.598;2022-08-03T09:54:59;25.50;99.90
18930;DHT22;43305;52.186;5.598;2022-08-03T09:57:27;25.80;99.90
18930;DHT22;43305;52.186;5.598;2022-08-03T10:00:06;25.90;99.90
18930;DHT22;43305;52.186;5.598;2022-08-03T10:02:36;26.00;99.90
18930;DHT22;43305;52.186;5.598;2022-08-03T10:05:04;26.00;99.90
18930;DHT22;43305;52.186;5.598;2022-08-03T10:07:41;25.90;99.90
18930;DHT22;43305;52.186;5.598;2022-08-03T10:10:08;25.80;99.90
18930;DHT22;43305;52.186;5.598;2022-08-03T10:12:36;25.80;99.90
18930;DHT22;43305;52.186;5.598;2022-08-03T10:15:04;26.00;99.90
18930;DHT22;43305;52.186;5.598;2022-08-03T10:17:31;26.00;99.90
18930;DHT22;43305;52.186;5.598;2022-08-03T10:19:58;26.10;99.90
18930;DHT22;43305;52.186;5.598;2022-08-03T10:22:27;26.10;99.90
18930;DHT22;43305;52.186;5.598;2022-08-03T10:24:58;26.00;99.90
18930;DHT22;43305;52.186;5.598;2022-08-03T10:27:26;26.20;99.90
18930;DHT22;43305;52.186;5.598;2022-08-03T10:30:00;26.40;99.90
18930;DHT22;43305;52.186;5.598;2022-08-03T10:32:31;26.60;99.90
18930;DHT22;43305;52.186;5.598;2022-08-03T10:35:04;26.70;99.90
18930;DHT22;43305;52.186;5.598;2022-08-03T10:37:33;26.80;99.90
18930;DHT22;43305;52.186;5.598;2022-08-03T10:40:13;26.70;99.90
18930;DHT22;43305;52.186;5.598;2022-08-03T10:42:42;26.80;99.90
18930;DHT22;43305;52.186;5.598;2022-08-03T10:45:15;26.90;99.90
18930;DHT22;43305;52.186;5.598;2022-08-03T10:47:43;27.00;99.90
18930;DHT22;43305;52.186;5.598;2022-08-03T10:50:11;27.20;99.90
18930;DHT22;43305;52.186;5.598;2022-08-03T10:52:53;27.30;99.90
18930;DHT22;43305;52.186;5.598;2022-08-03T10:55:37;27.30;99.90
18930;DHT22;43305;52.186;5.598;2022-08-03T10:58:45;27.20;99.90
18930;DHT22;43305;52.186;5.598;2022-08-03T11:01:12;27.20;99.90
18930;DHT22;43305;52.186;5.598;2022-08-03T11:04:14;27.20;99.90
18930;DHT22;43305;52.186;5.598;2022-08-03T11:06:44;27.30;99.90
18930;DHT22;43305;52.186;5.598;2022-08-03T11:09:17;27.30;99.90
18930;DHT22;43305;52.186;5.598;2022-08-03T11:11:47;27.30;99.90
18930;DHT22;43305;52.186;5.598;2022-08-03T11:14:16;27.40;99.90
18930;DHT22;43305;52.186;5.598;2022-08-03T11:16:45;27.50;99.90
18930;DHT22;43305;52.186;5.598;2022-08-03T11:19:14;27.70;99.90
18930;DHT22;43305;52.186;5.598;2022-08-03T11:21:57;27.70;99.90
18930;DHT22;43305;52.186;5.598;2022-08-03T11:27:26;27.80;99.90
18930;DHT22;43305;52.186;5.598;2022-08-03T11:29:54;27.80;99.90
18930;DHT22;43305;52.186;5.598;2022-08-03T11:35:20;27.90;99.90
18930;DHT22;43305;52.186;5.598;2022-08-03T11:38:04;27.90;99.90
18930;DHT22;43305;52.186;5.598;2022-08-03T11:40:32;28.00;99.90
18930;DHT22;43305;52.186;5.598;2022-08-03T11:43:02;27.90;99.90
18930;DHT22;43305;52.186;5.598;2022-08-03T11:45:29;27.90;99.90
18930;DHT22;43305;52.186;5.598;2022-08-03T11:47:56;28.10;99.90
18930;DHT22;43305;52.186;5.598;2022-08-03T11:50:25;28.40;99.90
18930;DHT22;43305;52.186;5.598;2022-08-03T11:52:53;28.40;99.90
18930;DHT22;43305;52.186;5.598;2022-08-03T11:55:19;28.40;99.90
18930;DHT22;43305;52.186;5.598;2022-08-03T11:57:47;28.40;99.90
18930;DHT22;43305;52.186;5.598;2022-08-03T12:00:31;28.40;99.90
18930;DHT22;43305;52.186;5.598;2022-08-03T12:03:02;28.40;99.90
18930;DHT22;43305;52.186;5.598;2022-08-03T12:05:40;28.50;99.90
18930;DHT22;43305;52.186;5.598;2022-08-03T12:08:07;28.50;99.90
18930;DHT22;43305;52.186;5.598;2022-08-03T12:10:35;28.50;99.90
18930;DHT22;43305;52.186;5.598;2022-08-03T12:13:03;28.60;99.90
18930;DHT22;43305;52.186;5.598;2022-08-03T12:15:35;28.70;99.90
18930;DHT22;43305;52.186;5.598;2022-08-03T12:18:11;28.90;99.90
18930;DHT22;43305;52.186;5.598;2022-08-03T12:20:38;29.00;99.90
18930;DHT22;43305;52.186;5.598;2022-08-03T12:23:08;29.00;99.90
18930;DHT22;43305;52.186;5.598;2022-08-03T12:25:37;29.10;99.90
18930;DHT22;43305;52.186;5.598;2022-08-03T12:28:08;29.20;99.90
18930;DHT22;43305;52.186;5.598;2022-08-03T12:30:38;29.30;99.90
18930;DHT22;43305;52.186;5.598;2022-08-03T12:33:14;29.30;99.90
18930;DHT22;43305;52.186;5.598;2022-08-03T12:35:41;29.20;99.90
18930;DHT22;43305;52.186;5.598;2022-08-03T12:38:09;29.30;99.90
18930;DHT22;43305;52.186;5.598;2022-08-03T12:40:35;29.40;99.90
18930;DHT22;43305;52.186;5.598;2022-08-03T12:43:10;29.50;99.90
18930;DHT22;43305;52.186;5.598;2022-08-03T12:45:39;29.60;99.90
18930;DHT22;43305;52.186;5.598;2022-08-03T12:48:08;29.70;99.90
18930;DHT22;43305;52.186;5.598;2022-08-03T12:50:38;29.70;99.90
18930;DHT22;43305;52.186;5.598;2022-08-03T12:53:07;29.70;99.90
18930;DHT22;43305;52.186;5.598;2022-08-03T12:55:36;29.80;99.90
18930;DHT22;43305;52.186;5.598;2022-08-03T12:58:05;29.80;99.90
18930;DHT22;43305;52.186;5.598;2022-08-03T13:00:32;30.00;99.90
18930;DHT22;43305;52.186;5.598;2022-08-03T13:03:03;30.00;99.90
18930;DHT22;43305;52.186;5.598;2022-08-03T13:05:41;30.10;99.90
18930;DHT22;43305;52.186;5.598;2022-08-03T13:08:17;30.30;99.90
18930;DHT22;43305;52.186;5.598;2022-08-03T13:10:45;30.30;99.90
18930;DHT22;43305;52.186;5.598;2022-08-03T13:13:12;30.40;99.90
18930;DHT22;43305;52.186;5.598;2022-08-03T13:15:38;30.40;99.90
18930;DHT22;43305;52.186;5.598;2022-08-03T13:18:07;30.30;99.90
18930;DHT22;43305;52.186;5.598;2022-08-03T13:20:34;30.30;99.90
18930;DHT22;43305;52.186;5.598;2022-08-03T13:23:01;30.30;99.90
18930;DHT22;43305;52.186;5.598;2022-08-03T13:25:45;30.40;99.90
18930;DHT22;43305;52.186;5.598;2022-08-03T13:28:12;30.50;99.90
18930;DHT22;43305;52.186;5.598;2022-08-03T13:30:39;30.50;99.90
18930;DHT22;43305;52.186;5.598;2022-08-03T13:33:08;30.50;99.90
18930;DHT22;43305;52.186;5.598;2022-08-03T13:35:35;30.40;99.90
18930;DHT22;43305;52.186;5.598;2022-08-03T13:38:02;30.50;99.90
18930;DHT22;43305;52.186;5.598;2022-08-03T13:40:29;30.60;99.90
18930;DHT22;43305;52.186;5.598;2022-08-03T13:42:57;30.60;99.90
18930;DHT22;43305;52.186;5.598;2022-08-03T13:45:24;30.90;99.90
18930;DHT22;43305;52.186;5.598;2022-08-03T13:47:51;30.90;99.90
18930;DHT22;43305;52.186;5.598;2022-08-03T13:50:20;30.90;99.90
18930;DHT22;43305;52.186;5.598;2022-08-03T13:52:47;31.20;99.90
18930;DHT22;43305;52.186;5.598;2022-08-03T13:55:14;31.30;99.90
18930;DHT22;43305;52.186;5.598;2022-08-03T13:57:41;31.20;99.90
18930;DHT22;43305;52.186;5.598;2022-08-03T14:00:08;31.10;99.90
18930;DHT22;43305;52.186;5.598;2022-08-03T14:02:37;31.20;99.90
18930;DHT22;43305;52.186;5.598;2022-08-03T14:05:04;31.20;99.90
18930;DHT22;43305;52.186;5.598;2022-08-03T14:07:34;31.10;99.90
18930;DHT22;43305;52.186;5.598;2022-08-03T14:10:01;31.10;99.90
18930;DHT22;43305;52.186;5.598;2022-08-03T14:12:31;31.20;99.90
18930;DHT22;43305;52.186;5.598;2022-08-03T14:14:57;31.20;99.90
18930;DHT22;43305;52.186;5.598;2022-08-03T14:17:24;31.20;99.90
18930;DHT22;43305;52.186;5.598;2022-08-03T14:19:51;31.20;99.90
18930;DHT22;43305;52.186;5.598;2022-08-03T14:22:18;31.60;99.90
18930;DHT22;43305;52.186;5.598;2022-08-03T14:24:46;31.50;99.90
18930;DHT22;43305;52.186;5.598;2022-08-03T14:27:15;31.80;99.90
18930;DHT22;43305;52.186;5.598;2022-08-03T14:29:42;31.90;99.90
18930;DHT22;43305;52.186;5.598;2022-08-03T14:32:09;32.30;99.90
18930;DHT22;43305;52.186;5.598;2022-08-03T14:34:36;32.20;99.90
18930;DHT22;43305;52.186;5.598;2022-08-03T14:37:05;32.40;99.90
18930;DHT22;43305;52.186;5.598;2022-08-03T14:39:32;32.10;99.90
18930;DHT22;43305;52.186;5.598;2022-08-03T14:42:00;32.30;99.90
18930;DHT22;43305;52.186;5.598;2022-08-03T14:44:27;32.20;99.90
18930;DHT22;43305;52.186;5.598;2022-08-03T14:46:56;31.90;99.90
18930;DHT22;43305;52.186;5.598;2022-08-03T14:49:23;32.20;99.90
18930;DHT22;43305;52.186;5.598;2022-08-03T14:51:50;32.40;99.90
18930;DHT22;43305;52.186;5.598;2022-08-03T14:54:21;32.40;99.90
18930;DHT22;43305;52.186;5.598;2022-08-03T14:56:48;32.70;99.90
18930;DHT22;43305;52.186;5.598;2022-08-03T14:59:16;32.80;99.90
18930;DHT22;43305;52.186;5.598;2022-08-03T15:01:43;32.70;99.90
18930;DHT22;43305;52.186;5.598;2022-08-03T15:04:10;33.10;99.90
18930;DHT22;43305;52.186;5.598;2022-08-03T15:06:37;32.90;99.90
18930;DHT22;43305;52.186;5.598;2022-08-03T15:09:04;32.50;99.90
18930;DHT22;43305;52.186;5.598;2022-08-03T15:11:31;32.20;99.90
18930;DHT22;43305;52.186;5.598;2022-08-03T15:13:59;32.10;99.90
18930;DHT22;43305;52.186;5.598;2022-08-03T15:16:27;32.20;99.90
18930;DHT22;43305;52.186;5.598;2022-08-03T15:18:56;32.20;99.90
18930;DHT22;43305;52.186;5.598;2022-08-03T15:21:26;32.20;99.90
18930;DHT22;43305;52.186;5.598;2022-08-03T15:23:56;32.00;99.90
18930;DHT22;43305;52.186;5.598;2022-08-03T15:26:26;31.50;99.90
18930;DHT22;43305;52.186;5.598;2022-08-03T15:28:53;31.60;99.90
18930;DHT22;43305;52.186;5.598;2022-08-03T15:31:26;32.00;99.90
18930;DHT22;43305;52.186;5.598;2022-08-03T15:33:53;31.80;99.90
18930;DHT22;43305;52.186;5.598;2022-08-03T15:36:20;31.70;99.90
18930;DHT22;43305;52.186;5.598;2022-08-03T15:38:47;32.00;99.90
18930;DHT22;43305;52.186;5.598;2022-08-03T15:41:14;32.40;99.90
18930;DHT22;43305;52.186;5.598;2022-08-03T15:43:42;32.20;99.90
18930;DHT22;43305;52.186;5.598;2022-08-03T15:46:10;31.90;99.90
18930;DHT22;43305;52.186;5.598;2022-08-03T15:48:45;31.90;99.90